createdAt,value
2018-07-22T00:01:05.657Z,10.50
2018-07-22T00:03:34.549Z,9.07
2018-07-22T00:06:03.763Z,9.47
2018-07-22T00:08:32.792Z,8.83
2018-07-22T00:11:01.903Z,9.80
2018-07-22T00:13:30.893Z,10.30
2018-07-22T00:15:59.994Z,8.93
2018-07-22T00:18:28.847Z,10.30
2018-07-22T00:20:57.714Z,9.90
2018-07-22T00:23:26.582Z,10.67
2018-07-22T00:25:55.698Z,9.50
2018-07-22T00:28:25.152Z,10.13
2018-07-22T00:30:53.908Z,9.20
2018-07-22T00:33:23.051Z,9.80
2018-07-22T00:35:51.810Z,8.67
2018-07-22T00:38:21.165Z,7.87
2018-07-22T00:40:50.107Z,8.80
2018-07-22T00:43:18.887Z,10.47
2018-07-22T00:45:48.355Z,8.87
2018-07-22T00:48:17.750Z,9.00
2018-07-22T00:50:47.134Z,10.00
2018-07-22T00:53:16.304Z,9.77
2018-07-22T00:55:45.076Z,9.23
2018-07-22T00:58:14.091Z,9.53
2018-07-22T01:00:43.447Z,9.07
2018-07-22T01:03:12.460Z,8.87
2018-07-22T01:05:42.124Z,10.10
2018-07-22T01:08:10.921Z,9.97
2018-07-22T01:10:40.632Z,9.23
2018-07-22T01:13:10.078Z,10.30
2018-07-22T01:15:44.559Z,9.67
2018-07-22T01:18:13.663Z,10.50
2018-07-22T01:20:43.041Z,10.47
2018-07-22T01:23:12.801Z,11.10
2018-07-22T01:25:41.998Z,10.23
2018-07-22T01:28:11.025Z,10.23
2018-07-22T01:30:39.821Z,11.10
2018-07-22T01:33:08.835Z,11.03
2018-07-22T01:35:38.231Z,11.57
2018-07-22T01:38:07.108Z,10.00
2018-07-22T01:40:36.253Z,10.13
2018-07-22T01:43:05.420Z,10.80
2018-07-22T01:45:34.262Z,12.17
2018-07-22T01:48:03.839Z,10.40
2018-07-22T01:50:32.599Z,11.17
2018-07-22T01:53:01.675Z,10.50
2018-07-22T01:55:30.794Z,11.10
2018-07-22T01:57:59.606Z,13.37
2018-07-22T02:00:28.452Z,12.10
2018-07-22T02:02:59.907Z,12.87
2018-07-22T02:05:30.587Z,12.83
2018-07-22T02:07:59.362Z,13.40
2018-07-22T02:10:28.753Z,15.10
2018-07-22T02:12:57.728Z,15.03
2018-07-22T02:15:26.822Z,14.10
2018-07-22T02:17:55.927Z,16.30
2018-07-22T02:20:25.280Z,15.20
2018-07-22T02:22:54.600Z,15.63
2018-07-22T02:25:23.929Z,15.30
2018-07-22T02:27:53.126Z,17.93
2018-07-22T02:30:22.381Z,17.23
2018-07-22T02:32:51.439Z,17.90
2018-07-22T02:35:20.548Z,16.27
2018-07-22T02:37:49.628Z,16.10
2018-07-22T02:40:18.916Z,18.13
2018-07-22T02:42:48.408Z,16.33
2018-07-22T02:45:17.219Z,16.73
2018-07-22T02:47:46.073Z,17.23
2018-07-22T02:50:14.835Z,16.53
2018-07-22T02:52:43.573Z,16.77
2018-07-22T02:55:12.968Z,15.80
2018-07-22T02:57:41.719Z,16.77
2018-07-22T03:00:11.029Z,15.20
2018-07-22T03:02:41.548Z,15.07
2018-07-22T03:05:10.999Z,15.20
2018-07-22T03:07:40.382Z,13.83
2018-07-22T03:10:09.130Z,15.47
2018-07-22T03:12:38.227Z,14.07
2018-07-22T03:15:07.901Z,13.47
2018-07-22T03:17:36.680Z,12.93
2018-07-22T03:20:05.864Z,13.97
2018-07-22T03:22:34.903Z,13.60
2018-07-22T03:25:03.893Z,13.57
2018-07-22T03:27:32.677Z,13.67
2018-07-22T03:30:01.542Z,13.80
2018-07-22T03:32:30.338Z,14.40
2018-07-22T03:34:59.127Z,13.10
2018-07-22T03:37:27.945Z,13.83
2018-07-22T03:39:57.051Z,14.07
2018-07-22T03:42:25.917Z,15.03
2018-07-22T03:44:55.235Z,13.10
2018-07-22T03:47:24.036Z,13.33
2018-07-22T03:49:53.646Z,12.67
2018-07-22T03:52:22.712Z,14.50
2018-07-22T03:54:51.839Z,11.73
2018-07-22T03:57:20.787Z,11.40
2018-07-22T03:59:49.714Z,12.50
2018-07-22T04:02:18.585Z,13.27
2018-07-22T04:04:47.558Z,11.27
2018-07-22T04:07:16.374Z,12.60
2018-07-22T04:09:46.197Z,11.67
2018-07-22T04:12:15.054Z,11.50
2018-07-22T04:14:43.979Z,11.17
2018-07-22T04:17:13.349Z,12.70
2018-07-22T04:19:42.709Z,12.37
2018-07-22T04:22:11.518Z,12.63
2018-07-22T04:24:40.624Z,11.90
2018-07-22T04:27:09.691Z,12.77
2018-07-22T04:29:38.935Z,12.20
2018-07-22T04:32:08.220Z,12.93
2018-07-22T04:34:37.777Z,14.10
2018-07-22T04:37:06.819Z,12.27
2018-07-22T04:39:35.752Z,12.20
2018-07-22T04:42:04.558Z,13.13
2018-07-22T04:44:33.363Z,12.30
2018-07-22T04:47:02.528Z,12.97
2018-07-22T04:49:32.020Z,11.43
2018-07-22T04:52:00.889Z,13.90
2018-07-22T04:54:30.419Z,12.90
2018-07-22T04:56:59.510Z,12.63
2018-07-22T04:59:28.318Z,12.90
2018-07-22T05:01:57.248Z,14.33
2018-07-22T05:04:26.516Z,12.60
2018-07-22T05:06:55.380Z,12.20
2018-07-22T05:09:24.561Z,13.87
2018-07-22T05:11:54.041Z,12.30
2018-07-22T05:14:22.856Z,13.37
2018-07-22T05:16:52.432Z,13.10
2018-07-22T05:19:21.768Z,13.20
2018-07-22T05:21:50.878Z,11.87
2018-07-22T05:24:19.994Z,11.90
2018-07-22T05:26:49.000Z,12.43
2018-07-22T05:29:17.887Z,11.13
2018-07-22T05:31:46.612Z,11.40
2018-07-22T05:34:16.182Z,9.87
2018-07-22T05:36:45.555Z,9.57
2018-07-22T05:39:14.752Z,10.27
2018-07-22T05:41:44.100Z,11.03
2018-07-22T05:44:12.867Z,11.57
2018-07-22T05:46:42.073Z,10.60
2018-07-22T05:49:10.980Z,10.20
2018-07-22T05:51:39.793Z,9.37
2018-07-22T05:54:08.924Z,8.73
2018-07-22T05:56:38.452Z,10.20
2018-07-22T05:59:07.869Z,9.60
2018-07-22T06:01:36.701Z,8.23
2018-07-22T06:04:05.434Z,8.63
2018-07-22T06:06:34.758Z,8.10
2018-07-22T06:09:04.120Z,7.53
2018-07-22T06:11:33.015Z,7.30
2018-07-22T06:14:02.155Z,6.80
2018-07-22T06:16:31.047Z,5.87
2018-07-22T06:19:00.337Z,6.23
2018-07-22T06:21:29.328Z,5.80
2018-07-22T06:23:58.260Z,5.93
2018-07-22T06:26:27.047Z,6.73
2018-07-22T06:28:56.108Z,6.50
2018-07-22T06:31:25.203Z,5.23
2018-07-22T06:33:54.567Z,6.10
2018-07-22T06:36:23.717Z,7.30
2018-07-22T06:38:52.713Z,6.40
2018-07-22T06:41:21.495Z,8.37
2018-07-22T06:43:50.488Z,6.80
2018-07-22T06:46:19.258Z,7.17
2018-07-22T06:48:48.281Z,7.57
2018-07-22T06:51:17.660Z,8.00
2018-07-22T06:53:46.988Z,9.57
2018-07-22T06:56:15.821Z,10.23
2018-07-22T06:58:44.518Z,9.57
2018-07-22T07:01:13.748Z,10.60
2018-07-22T07:03:43.030Z,11.63
2018-07-22T07:06:11.989Z,10.47
2018-07-22T07:08:41.057Z,8.53
2018-07-22T07:11:09.799Z,9.17
2018-07-22T07:13:38.933Z,9.80
2018-07-22T07:16:08.681Z,7.63
2018-07-22T07:18:38.174Z,8.03
2018-07-22T07:21:07.595Z,7.63
2018-07-22T07:23:36.677Z,8.30
2018-07-22T07:26:06.050Z,6.13
2018-07-22T07:28:34.768Z,4.80
2018-07-22T07:31:03.535Z,4.50
2018-07-22T07:33:32.504Z,4.43
2018-07-22T07:36:01.614Z,4.10
2018-07-22T07:38:30.354Z,4.70
2018-07-22T07:40:59.116Z,4.40
2018-07-22T07:43:28.503Z,3.63
2018-07-22T07:45:57.542Z,4.03
2018-07-22T07:48:26.692Z,3.13
2018-07-22T07:50:55.966Z,3.53
2018-07-22T07:53:25.164Z,4.20
2018-07-22T07:55:54.194Z,4.20
2018-07-22T07:58:23.563Z,3.53
2018-07-22T08:00:53.378Z,3.83
2018-07-22T08:03:22.551Z,3.77
2018-07-22T08:05:51.956Z,3.40
2018-07-22T08:08:20.705Z,4.00
2018-07-22T08:10:50.311Z,3.33
2018-07-22T08:13:19.657Z,4.70
2018-07-22T08:15:48.988Z,4.23
2018-07-22T08:18:18.059Z,4.90
2018-07-22T08:20:47.051Z,3.77
2018-07-22T08:23:16.492Z,3.60
2018-07-22T08:25:46.001Z,3.33
2018-07-22T08:28:16.379Z,3.90
2018-07-22T08:30:45.392Z,3.40
2018-07-22T08:33:14.338Z,3.70
2018-07-22T08:35:43.557Z,4.10
2018-07-22T08:38:12.570Z,4.20
2018-07-22T08:40:41.345Z,3.97
2018-07-22T08:43:10.422Z,4.60
2018-07-22T08:45:39.763Z,3.40
2018-07-22T08:48:08.455Z,3.23
2018-07-22T08:50:37.791Z,3.63
2018-07-22T08:53:06.885Z,4.30
2018-07-22T08:55:35.628Z,3.10
2018-07-22T08:58:04.391Z,4.47
2018-07-22T09:00:33.410Z,4.40
2018-07-22T09:03:02.882Z,4.10
2018-07-22T09:05:32.169Z,4.00
2018-07-22T09:08:01.223Z,3.57
2018-07-22T09:10:30.338Z,4.37
2018-07-22T09:12:59.142Z,5.03
2018-07-22T09:15:28.239Z,3.27
2018-07-22T09:17:57.264Z,4.10
2018-07-22T09:20:26.025Z,3.73
2018-07-22T09:22:54.761Z,3.50
2018-07-22T09:25:24.182Z,3.53
2018-07-22T09:27:53.305Z,3.30
2018-07-22T09:30:22.419Z,3.20
2018-07-22T09:32:51.135Z,3.07
2018-07-22T09:35:20.116Z,4.23
2018-07-22T09:37:49.166Z,3.40
2018-07-22T09:40:18.234Z,3.90
2018-07-22T09:42:47.055Z,3.47
2018-07-22T09:45:16.141Z,3.80
2018-07-22T09:47:44.973Z,2.93
2018-07-22T09:50:14.306Z,3.37
2018-07-22T09:52:43.579Z,4.17
2018-07-22T09:55:12.863Z,3.80
2018-07-22T09:57:41.979Z,3.30
2018-07-22T10:00:10.805Z,4.33
2018-07-22T10:02:39.905Z,3.63
2018-07-22T10:05:08.678Z,5.00
2018-07-22T10:07:39.652Z,4.73
2018-07-22T10:10:08.472Z,4.10
2018-07-22T10:12:40.590Z,3.93
2018-07-22T10:15:10.290Z,3.03
2018-07-22T10:17:39.481Z,4.20
2018-07-22T10:20:08.282Z,3.30
2018-07-22T10:22:37.581Z,3.27
2018-07-22T10:25:10.443Z,3.53
2018-07-22T10:27:39.691Z,3.47
2018-07-22T10:30:09.131Z,2.33
2018-07-22T10:32:43.114Z,3.03
2018-07-22T10:35:12.881Z,3.33
2018-07-22T10:37:41.712Z,3.27
2018-07-22T10:40:10.770Z,3.73
2018-07-22T10:42:39.767Z,3.63
2018-07-22T10:45:08.794Z,2.93
2018-07-22T10:47:38.164Z,5.13
2018-07-22T10:50:08.381Z,4.40
2018-07-22T10:52:37.297Z,3.97
2018-07-22T10:55:06.108Z,3.63
2018-07-22T10:57:35.154Z,5.03
2018-07-22T11:00:04.451Z,3.60
2018-07-22T11:02:33.288Z,3.30
2018-07-22T11:05:02.054Z,3.40
2018-07-22T11:07:31.360Z,3.03
2018-07-22T11:10:00.187Z,3.70
2018-07-22T11:12:29.297Z,2.80
2018-07-22T11:14:59.781Z,3.47
2018-07-22T11:17:28.632Z,3.40
2018-07-22T11:19:57.627Z,3.00
2018-07-22T11:22:26.668Z,3.00
2018-07-22T11:24:55.949Z,2.33
2018-07-22T11:27:25.514Z,3.73
2018-07-22T11:29:54.281Z,2.73
2018-07-22T11:32:23.313Z,2.80
2018-07-22T11:34:53.512Z,3.23
2018-07-22T11:37:24.163Z,3.43
2018-07-22T11:39:54.224Z,4.00
2018-07-22T11:42:26.395Z,3.17
2018-07-22T11:44:55.455Z,2.83
2018-07-22T11:47:24.834Z,3.20
2018-07-22T11:49:53.973Z,2.90
2018-07-22T11:52:23.056Z,3.17
2018-07-22T11:54:51.879Z,3.83
2018-07-22T11:57:20.931Z,2.73
2018-07-22T11:59:50.787Z,3.40
2018-07-22T12:02:19.683Z,3.20
2018-07-22T12:04:48.734Z,2.90
2018-07-22T12:07:17.847Z,3.47
2018-07-22T12:09:46.677Z,3.23
2018-07-22T12:12:16.230Z,3.40
2018-07-22T12:14:45.209Z,3.40
2018-07-22T12:17:14.236Z,3.30
2018-07-22T12:19:43.019Z,3.60
2018-07-22T12:22:16.833Z,3.33
2018-07-22T12:24:46.382Z,3.60
2018-07-22T12:27:15.206Z,3.47
2018-07-22T12:29:44.387Z,4.07
2018-07-22T12:32:13.454Z,3.40
2018-07-22T12:34:42.586Z,3.93
2018-07-22T12:37:11.391Z,4.13
2018-07-22T12:39:41.296Z,4.57
2018-07-22T12:42:10.406Z,3.47
2018-07-22T12:44:44.547Z,3.10
2018-07-22T12:47:16.148Z,4.00
2018-07-22T12:49:45.572Z,3.27
2018-07-22T12:52:14.357Z,3.80
2018-07-22T12:54:43.594Z,3.90
2018-07-22T12:57:12.665Z,4.70
2018-07-22T12:59:42.014Z,3.70
2018-07-22T13:02:11.125Z,3.20
2018-07-22T13:04:40.508Z,3.30
2018-07-22T13:07:12.120Z,3.40
2018-07-22T13:09:41.586Z,3.53
2018-07-22T13:12:10.590Z,3.73
2018-07-22T13:14:39.692Z,3.43
2018-07-22T13:17:12.176Z,4.20
2018-07-22T13:19:41.238Z,3.80
2018-07-22T13:22:09.955Z,3.40
2018-07-22T13:24:39.000Z,3.47
2018-07-22T13:27:08.098Z,3.40
2018-07-22T13:29:36.916Z,3.23
2018-07-22T13:32:06.418Z,3.00
2018-07-22T13:34:35.460Z,3.87
2018-07-22T13:37:04.733Z,3.90
2018-07-22T13:39:33.856Z,3.40
2018-07-22T13:42:04.374Z,3.10
2018-07-22T13:44:33.282Z,3.67
2018-07-22T13:47:02.190Z,4.00
2018-07-22T13:49:31.113Z,3.80
2018-07-22T13:52:00.218Z,4.13
2018-07-22T13:54:29.179Z,4.40
2018-07-22T13:56:58.575Z,3.60
2018-07-22T13:59:27.392Z,3.03
2018-07-22T14:01:56.469Z,3.53
2018-07-22T14:04:25.296Z,3.93
2018-07-22T14:06:54.108Z,3.40
2018-07-22T14:09:23.248Z,4.03
2018-07-22T14:11:52.428Z,4.13
2018-07-22T14:14:21.843Z,3.53
2018-07-22T14:16:50.654Z,4.20
2018-07-22T14:19:19.611Z,3.87
2018-07-22T14:21:48.521Z,4.37
2018-07-22T14:24:17.641Z,4.00
2018-07-22T14:26:46.358Z,3.20
2018-07-22T14:29:15.451Z,4.27
2018-07-22T14:31:44.222Z,4.40
2018-07-22T14:34:13.258Z,4.47
2018-07-22T14:36:42.426Z,4.13
2018-07-22T14:39:12.974Z,4.50
2018-07-22T14:41:42.625Z,4.40
2018-07-22T14:44:11.401Z,4.00
2018-07-22T14:46:40.142Z,3.83
2018-07-22T14:49:10.237Z,3.80
2018-07-22T14:51:39.664Z,4.70
2018-07-22T14:54:08.456Z,5.13
2018-07-22T14:56:37.212Z,4.27
2018-07-22T14:59:06.092Z,4.10
2018-07-22T15:01:35.421Z,4.43
2018-07-22T15:04:04.507Z,4.90
2018-07-22T15:06:33.540Z,5.10
2018-07-22T15:09:02.954Z,4.67
2018-07-22T15:11:31.943Z,4.70
2018-07-22T15:14:01.270Z,4.93
2018-07-22T15:16:30.348Z,4.57
2018-07-22T15:18:59.170Z,4.97
2018-07-22T15:21:27.862Z,4.80
2018-07-22T15:23:56.617Z,4.20
2018-07-22T15:26:25.380Z,4.97
2018-07-22T15:28:54.918Z,7.17
2018-07-22T15:31:23.666Z,7.90
2018-07-22T15:33:52.804Z,4.73
2018-07-22T15:36:22.238Z,4.20
2018-07-22T15:38:50.979Z,7.13
2018-07-22T15:41:19.708Z,5.50
2018-07-22T15:43:48.732Z,5.57
2018-07-22T15:46:17.871Z,5.17
2018-07-22T15:48:47.303Z,4.20
2018-07-22T15:51:16.326Z,5.10
2018-07-22T15:53:45.642Z,4.60
2018-07-22T15:56:14.799Z,4.40
2018-07-22T15:58:43.883Z,3.80
2018-07-22T16:01:13.953Z,4.57
2018-07-22T16:03:42.712Z,4.10
2018-07-22T16:06:11.849Z,4.27
2018-07-22T16:08:40.996Z,4.40
2018-07-22T16:11:10.409Z,4.50
2018-07-22T16:13:39.285Z,4.83
2018-07-22T16:16:08.276Z,4.67
2018-07-22T16:18:37.047Z,4.30
2018-07-22T16:21:06.473Z,4.47
2018-07-22T16:23:35.222Z,4.87
2018-07-22T16:26:04.419Z,14.00
2018-07-22T16:28:33.171Z,16.63
2018-07-22T16:31:01.968Z,9.80
2018-07-22T16:33:31.026Z,5.57
2018-07-22T16:36:00.082Z,4.97
2018-07-22T16:38:28.803Z,5.03
2018-07-22T16:40:58.226Z,4.73
2018-07-22T16:43:27.254Z,4.57
2018-07-22T16:45:56.010Z,4.47
2018-07-22T16:48:24.900Z,4.27
2018-07-22T16:50:53.643Z,4.80
2018-07-22T16:53:22.805Z,5.17
2018-07-22T16:55:51.724Z,3.37
2018-07-22T16:58:20.478Z,4.33
2018-07-22T17:00:49.241Z,3.90
2018-07-22T17:03:18.140Z,4.50
2018-07-22T17:05:46.888Z,4.50
2018-07-22T17:08:15.678Z,4.60
2018-07-22T17:10:44.473Z,3.80
2018-07-22T17:13:13.538Z,4.30
2018-07-22T17:15:42.430Z,4.60
2018-07-22T17:18:11.137Z,4.17
2018-07-22T17:20:39.979Z,4.20
2018-07-22T17:23:08.783Z,3.43
2018-07-22T17:25:37.885Z,4.27
2018-07-22T17:28:06.686Z,4.00
2018-07-22T17:30:35.753Z,3.80
2018-07-22T17:33:04.815Z,4.17
2018-07-22T17:35:33.782Z,3.50
2018-07-22T17:38:02.541Z,4.07
2018-07-22T17:40:32.101Z,3.80
2018-07-22T17:43:01.054Z,3.60
2018-07-22T17:45:30.141Z,2.87
2018-07-22T17:47:59.145Z,3.43
2018-07-22T17:50:28.449Z,3.07
2018-07-22T17:52:57.264Z,3.43
2018-07-22T17:55:26.254Z,3.20
2018-07-22T17:57:54.976Z,3.03
2018-07-22T18:00:23.757Z,3.57
2018-07-22T18:03:33.757Z,3.30
2018-07-22T18:06:02.940Z,3.53
2018-07-22T18:08:32.568Z,3.47
2018-07-22T18:11:01.627Z,4.17
2018-07-22T18:13:30.931Z,3.50
2018-07-22T18:16:00.044Z,3.80
2018-07-22T18:18:29.318Z,3.27
2018-07-22T18:20:58.577Z,3.63
2018-07-22T18:23:27.934Z,4.17
2018-07-22T18:25:57.252Z,4.10
2018-07-22T18:28:27.475Z,3.97
2018-07-22T18:30:56.228Z,4.10
2018-07-22T18:33:24.975Z,4.17
2018-07-22T18:35:54.108Z,4.10
2018-07-22T18:38:22.875Z,4.50
2018-07-22T18:40:51.884Z,3.90
2018-07-22T18:43:20.897Z,4.30
2018-07-22T18:45:49.861Z,4.17
2018-07-22T18:48:19.324Z,4.23
2018-07-22T18:50:48.015Z,4.47
2018-07-22T18:53:16.725Z,5.10
2018-07-22T18:55:45.510Z,4.17
2018-07-22T18:58:14.517Z,3.50
2018-07-22T19:00:43.483Z,4.03
2018-07-22T19:03:12.227Z,4.13
2018-07-22T19:05:41.703Z,4.80
2018-07-22T19:08:11.023Z,4.50
2018-07-22T19:10:39.784Z,4.20
2018-07-22T19:13:08.878Z,4.40
2018-07-22T19:15:40.315Z,4.77
2018-07-22T19:18:09.875Z,4.90
2018-07-22T19:20:38.917Z,5.47
2018-07-22T19:23:08.425Z,5.13
2018-07-22T19:25:37.202Z,5.30
2018-07-22T19:28:07.044Z,5.40
2018-07-22T19:30:36.332Z,6.77
2018-07-22T19:33:05.062Z,6.70
2018-07-22T19:35:34.084Z,6.27
2018-07-22T19:38:03.129Z,6.47
2018-07-22T19:40:32.465Z,5.83
2018-07-22T19:43:01.834Z,5.97
2018-07-22T19:45:31.131Z,5.77
2018-07-22T19:48:00.802Z,5.37
2018-07-22T19:50:29.548Z,5.30
2018-07-22T19:52:58.325Z,6.60
2018-07-22T19:55:27.437Z,6.37
2018-07-22T19:57:56.524Z,6.30
2018-07-22T20:00:26.343Z,6.30
2018-07-22T20:02:55.097Z,5.53
2018-07-22T20:05:24.498Z,5.93
2018-07-22T20:07:53.741Z,6.50
2018-07-22T20:10:23.322Z,5.10
2018-07-22T20:12:52.402Z,6.37
2018-07-22T20:15:21.395Z,6.03
2018-07-22T20:17:50.241Z,5.37
2018-07-22T20:20:19.100Z,5.40
2018-07-22T20:22:52.170Z,6.00
2018-07-22T20:25:21.874Z,5.73
2018-07-22T20:27:50.633Z,5.53
2018-07-22T20:30:19.748Z,5.63
2018-07-22T20:32:48.908Z,6.07
2018-07-22T20:35:17.642Z,6.43
2018-07-22T20:37:46.611Z,7.10
2018-07-22T20:40:15.435Z,5.80
2018-07-22T20:42:45.025Z,6.50
2018-07-22T20:45:14.150Z,6.70
2018-07-22T20:47:44.107Z,6.30
2018-07-22T20:50:13.162Z,6.97
2018-07-22T20:52:42.263Z,5.53
2018-07-22T20:55:10.975Z,5.80
2018-07-22T20:57:39.994Z,6.30
2018-07-22T21:00:08.732Z,6.40
2018-07-22T21:02:37.484Z,6.00
2018-07-22T21:05:06.784Z,5.23
2018-07-22T21:07:35.792Z,6.03
2018-07-22T21:10:04.580Z,6.30
2018-07-22T21:12:47.604Z,5.80
2018-07-22T21:15:17.311Z,5.13
2018-07-22T21:17:47.349Z,6.10
2018-07-22T21:20:17.288Z,5.40
2018-07-22T21:22:46.061Z,5.60
2018-07-22T21:25:15.374Z,4.90
2018-07-22T21:27:44.284Z,4.57
2018-07-22T21:30:14.201Z,5.03
2018-07-22T21:32:42.922Z,5.33
2018-07-22T21:35:11.680Z,6.10
2018-07-22T21:37:40.641Z,7.13
2018-07-22T21:40:09.774Z,6.77
2018-07-22T21:42:38.868Z,6.73
2018-07-22T21:45:08.716Z,5.70
2018-07-22T21:47:37.883Z,4.93
2018-07-22T21:50:07.663Z,5.17
2018-07-22T21:52:36.451Z,4.70
2018-07-22T21:55:06.216Z,6.37
2018-07-22T21:57:35.045Z,5.27
2018-07-22T22:00:03.955Z,6.13
2018-07-22T22:02:34.745Z,5.90
2018-07-22T22:05:06.154Z,6.40
2018-07-22T22:07:35.718Z,5.93
2018-07-22T22:10:05.542Z,6.43
2018-07-22T22:12:35.494Z,6.00
2018-07-22T22:15:05.254Z,6.67
2018-07-22T22:17:35.463Z,6.47
2018-07-22T22:20:05.155Z,5.87
2018-07-22T22:22:34.139Z,6.30
2018-07-22T22:25:02.930Z,6.07
2018-07-22T22:27:31.890Z,5.40
2018-07-22T22:30:00.607Z,5.33
2018-07-22T22:32:29.638Z,6.00
2018-07-22T22:34:58.952Z,5.97
2018-07-22T22:37:27.666Z,5.70
2018-07-22T22:39:56.740Z,5.60
2018-07-22T22:42:25.773Z,5.93
2018-07-22T22:44:55.056Z,5.60
2018-07-22T22:47:32.483Z,5.93
2018-07-22T22:50:01.839Z,5.50
2018-07-22T22:52:30.893Z,5.10
2018-07-22T22:54:59.669Z,6.23
2018-07-22T22:57:28.895Z,5.10
2018-07-22T22:59:57.654Z,6.00
2018-07-22T23:02:32.253Z,5.00
2018-07-22T23:05:00.992Z,5.97
2018-07-22T23:07:30.263Z,5.50
2018-07-22T23:09:59.731Z,6.20
2018-07-22T23:12:28.829Z,5.90
2018-07-22T23:14:57.823Z,5.00
2018-07-22T23:17:26.597Z,5.63
2018-07-22T23:19:55.871Z,5.63
2018-07-22T23:22:25.159Z,5.80
2018-07-22T23:24:53.982Z,5.60
2018-07-22T23:27:22.748Z,5.90
2018-07-22T23:29:51.854Z,5.63
2018-07-22T23:32:21.196Z,6.17
2018-07-22T23:34:50.353Z,5.30
2018-07-22T23:37:19.131Z,6.00
2018-07-22T23:39:48.582Z,5.07
2018-07-22T23:42:17.370Z,5.83
2018-07-22T23:44:46.097Z,6.30
2018-07-22T23:47:14.873Z,6.00
2018-07-22T23:49:44.004Z,6.40
2018-07-22T23:52:13.302Z,6.60
2018-07-22T23:54:42.656Z,5.83
2018-07-22T23:57:11.358Z,6.87
2018-07-22T23:59:40.171Z,6.67
